AAL1653 KBUR-KSAN
Flight info
| Callsign | AAL1653 |
|---|---|
| Flight time | 0h 35m |
| Altitude | 16000 |
| Route | VNY3 FIM V386 RZS J88 LAX COMIX2 |
| Aircraft | E145/M-V/N |
Departure
| Time | 2026-05-07 23:04 |
|---|---|
| Airport | Hollywood Burbank/Bob Hope Airport (KBUR) |
Arrival
| Time | 2026-05-07 23:39 |
|---|---|
| Airport | San Diego International Airport (KSAN) |
| Time | Latitude | Longitude | Altitude | Speed | Heading |
|---|---|---|---|---|---|
| 2026-05-07 22:16 | 34.19669 | -118.35480 | 719 ft | 0 kts | 178° |
| 2026-05-07 22:57 | 34.19668 | -118.35480 | 719 ft | 0 kts | 178° |
| 2026-05-07 22:58 | 34.19660 | -118.35500 | 720 ft | 3 kts | 298° |
| 2026-05-07 22:58 | 34.19691 | -118.35506 | 721 ft | 5 kts | 357° |
| 2026-05-07 22:58 | 34.19704 | -118.35507 | 721 ft | 0 kts | 356° |
| 2026-05-07 22:59 | 34.19709 | -118.35508 | 721 ft | 0 kts | 355° |
| 2026-05-07 22:59 | 34.19712 | -118.35509 | 721 ft | 0 kts | 351° |
| 2026-05-07 22:59 | 34.19726 | -118.35516 | 722 ft | 9 kts | 320° |
| 2026-05-07 22:59 | 34.19720 | -118.35594 | 723 ft | 10 kts | 239° |
| 2026-05-07 23:00 | 34.19678 | -118.35675 | 724 ft | 12 kts | 243° |
| 2026-05-07 23:00 | 34.19677 | -118.35772 | 725 ft | 11 kts | 274° |
| 2026-05-07 23:00 | 34.19679 | -118.35874 | 727 ft | 12 kts | 271° |
| 2026-05-07 23:00 | 34.19678 | -118.35980 | 729 ft | 12 kts | 270° |
| 2026-05-07 23:01 | 34.19684 | -118.36103 | 732 ft | 17 kts | 274° |
| 2026-05-07 23:01 | 34.19687 | -118.36282 | 733 ft | 25 kts | 270° |
| 2026-05-07 23:01 | 34.19689 | -118.36517 | 736 ft | 30 kts | 270° |
| 2026-05-07 23:01 | 34.19689 | -118.36562 | 737 ft | 31 kts | 271° |
| 2026-05-07 23:02 | 34.19691 | -118.36754 | 738 ft | 29 kts | 272° |
| 2026-05-07 23:02 | 34.19692 | -118.36790 | 738 ft | 1 kts | 272° |
| 2026-05-07 23:02 | 34.19694 | -118.36841 | 739 ft | 11 kts | 274° |
| 2026-05-07 23:02 | 34.19731 | -118.36903 | 740 ft | 8 kts | 355° |
| 2026-05-07 23:03 | 34.19788 | -118.36876 | 741 ft | 9 kts | 69° |
| 2026-05-07 23:03 | 34.19791 | -118.36844 | 741 ft | 0 kts | 93° |
| 2026-05-07 23:03 | 34.19788 | -118.36692 | 741 ft | 57 kts | 92° |
| 2026-05-07 23:03 | 34.19776 | -118.35864 | 729 ft | 135 kts | 91° |
| 2026-05-07 23:04 | 34.19763 | -118.34540 | 941 ft | 170 kts | 92° |
| 2026-05-07 23:04 | 34.19704 | -118.33059 | 1510 ft | 188 kts | 104° |
| 2026-05-07 23:04 | 34.18987 | -118.31729 | 2202 ft | 201 kts | 144° |
| 2026-05-07 23:04 | 34.17659 | -118.31185 | 2962 ft | 210 kts | 181° |
| 2026-05-07 23:05 | 34.16231 | -118.31654 | 3617 ft | 226 kts | 216° |
| 2026-05-07 23:05 | 34.14958 | -118.32882 | 4074 ft | 255 kts | 223° |
| 2026-05-07 23:05 | 34.13556 | -118.34351 | 4085 ft | 267 kts | 224° |
| 2026-05-07 23:05 | 34.12167 | -118.35808 | 4618 ft | 265 kts | 224° |
| 2026-05-07 23:06 | 34.10780 | -118.37309 | 5109 ft | 269 kts | 227° |
| 2026-05-07 23:06 | 34.09670 | -118.38987 | 6123 ft | 247 kts | 240° |
| 2026-05-07 23:06 | 34.09084 | -118.40853 | 6721 ft | 242 kts | 264° |
| 2026-05-07 23:06 | 34.09134 | -118.42863 | 7278 ft | 248 kts | 285° |
| 2026-05-07 23:07 | 34.10030 | -118.44603 | 8021 ft | 250 kts | 320° |
| 2026-05-07 23:07 | 34.11549 | -118.45589 | 8775 ft | 254 kts | 343° |
| 2026-05-07 23:07 | 34.13284 | -118.46201 | 9391 ft | 266 kts | 343° |
| 2026-05-07 23:07 | 34.15083 | -118.46860 | 10040 ft | 275 kts | 347° |
| 2026-05-07 23:08 | 34.16965 | -118.47453 | 10642 ft | 286 kts | 346° |
| 2026-05-07 23:08 | 34.18944 | -118.48083 | 10968 ft | 307 kts | 346° |
| 2026-05-07 23:08 | 34.20946 | -118.49261 | 10994 ft | 338 kts | 323° |
| 2026-05-07 23:08 | 34.22571 | -118.51419 | 11005 ft | 356 kts | 311° |
| 2026-05-07 23:09 | 34.24473 | -118.53310 | 10981 ft | 356 kts | 334° |
| 2026-05-07 23:09 | 34.26834 | -118.54145 | 10998 ft | 356 kts | 356° |
| 2026-05-07 23:09 | 34.29279 | -118.53796 | 10990 ft | 358 kts | 19° |
| 2026-05-07 23:09 | 34.31554 | -118.52526 | 10998 ft | 360 kts | 25° |
| 2026-05-07 23:10 | 34.33639 | -118.50857 | 11000 ft | 363 kts | 40° |
| 2026-05-07 23:10 | 34.35572 | -118.48875 | 10985 ft | 365 kts | 40° |
| 2026-05-07 23:10 | 34.37499 | -118.46880 | 11010 ft | 365 kts | 40° |
| 2026-05-07 23:10 | 34.39167 | -118.44566 | 11002 ft | 362 kts | 59° |
| 2026-05-07 23:11 | 34.39973 | -118.41728 | 10999 ft | 360 kts | 81° |
| 2026-05-07 23:11 | 34.39797 | -118.38721 | 11019 ft | 360 kts | 104° |
| 2026-05-07 23:11 | 34.38674 | -118.36054 | 11028 ft | 361 kts | 127° |
| 2026-05-07 23:11 | 34.36764 | -118.34108 | 11017 ft | 361 kts | 150° |
| 2026-05-07 23:12 | 34.34365 | -118.33215 | 11026 ft | 361 kts | 174° |
| 2026-05-07 23:12 | 34.31878 | -118.33313 | 11055 ft | 360 kts | 184° |
| 2026-05-07 23:12 | 34.29390 | -118.33541 | 11022 ft | 361 kts | 184° |
| 2026-05-07 23:12 | 34.26889 | -118.33490 | 10998 ft | 359 kts | 168° |
| 2026-05-07 23:13 | 34.24589 | -118.32343 | 11020 ft | 354 kts | 147° |
| 2026-05-07 23:13 | 34.22428 | -118.30926 | 11008 ft | 355 kts | 153° |
| 2026-05-07 23:13 | 34.20204 | -118.29628 | 11019 ft | 358 kts | 153° |
| 2026-05-07 23:13 | 34.18020 | -118.28156 | 11004 ft | 360 kts | 151° |
| 2026-05-07 23:14 | 34.15688 | -118.26986 | 11001 ft | 362 kts | 153° |
| 2026-05-07 23:14 | 34.13502 | -118.25511 | 10987 ft | 364 kts | 155° |
| 2026-05-07 23:14 | 34.11128 | -118.24364 | 11005 ft | 365 kts | 153° |
| 2026-05-07 23:14 | 34.08837 | -118.23044 | 10993 ft | 367 kts | 153° |
| 2026-05-07 23:15 | 34.06531 | -118.21713 | 10987 ft | 368 kts | 153° |
| 2026-05-07 23:15 | 34.04214 | -118.20374 | 10982 ft | 370 kts | 153° |
| 2026-05-07 23:15 | 34.01891 | -118.19034 | 10965 ft | 371 kts | 153° |
| 2026-05-07 23:15 | 33.99554 | -118.17685 | 10975 ft | 372 kts | 153° |
| 2026-05-07 23:16 | 33.97201 | -118.16328 | 10970 ft | 373 kts | 153° |
| 2026-05-07 23:16 | 33.94863 | -118.14982 | 10962 ft | 373 kts | 153° |
| 2026-05-07 23:16 | 33.92532 | -118.13609 | 10966 ft | 373 kts | 149° |
| 2026-05-07 23:16 | 33.90263 | -118.12154 | 10964 ft | 374 kts | 158° |
| 2026-05-07 23:17 | 33.87844 | -118.10937 | 10964 ft | 373 kts | 153° |
| 2026-05-07 23:17 | 33.85521 | -118.09606 | 10962 ft | 373 kts | 153° |
| 2026-05-07 23:17 | 33.83179 | -118.08262 | 10963 ft | 373 kts | 153° |
| 2026-05-07 23:17 | 33.80808 | -118.06901 | 10959 ft | 374 kts | 153° |
| 2026-05-07 23:18 | 33.78375 | -118.05814 | 10957 ft | 376 kts | 168° |
| 2026-05-07 23:18 | 33.75775 | -118.05767 | 10972 ft | 377 kts | 186° |
| 2026-05-07 23:18 | 33.73163 | -118.06118 | 10966 ft | 378 kts | 185° |
| 2026-05-07 23:18 | 33.70551 | -118.06450 | 10964 ft | 378 kts | 185° |
| 2026-05-07 23:19 | 33.67937 | -118.06780 | 10962 ft | 378 kts | 185° |
| 2026-05-07 23:19 | 33.65291 | -118.07112 | 10969 ft | 378 kts | 185° |
| 2026-05-07 23:19 | 33.62693 | -118.07355 | 10958 ft | 377 kts | 177° |
| 2026-05-07 23:19 | 33.60149 | -118.06677 | 10973 ft | 372 kts | 154° |
| 2026-05-07 23:20 | 33.58026 | -118.04970 | 10966 ft | 367 kts | 132° |
| 2026-05-07 23:20 | 33.56366 | -118.02651 | 10974 ft | 366 kts | 128° |
| 2026-05-07 23:20 | 33.54731 | -118.00322 | 10969 ft | 366 kts | 127° |
| 2026-05-07 23:20 | 33.53099 | -117.97995 | 10971 ft | 367 kts | 127° |
| 2026-05-07 23:21 | 33.51450 | -117.95645 | 10971 ft | 367 kts | 128° |
| 2026-05-07 23:21 | 33.49809 | -117.93309 | 10979 ft | 368 kts | 127° |
| 2026-05-07 23:21 | 33.48171 | -117.90977 | 10975 ft | 368 kts | 128° |
| 2026-05-07 23:21 | 33.46526 | -117.88638 | 10962 ft | 368 kts | 128° |
| 2026-05-07 23:22 | 33.44873 | -117.86289 | 10970 ft | 368 kts | 128° |
| 2026-05-07 23:22 | 33.43221 | -117.83942 | 10969 ft | 369 kts | 127° |
| 2026-05-07 23:22 | 33.41556 | -117.81578 | 10968 ft | 369 kts | 128° |
| 2026-05-07 23:22 | 33.39915 | -117.79251 | 10958 ft | 370 kts | 128° |
| 2026-05-07 23:23 | 33.38261 | -117.76907 | 10969 ft | 369 kts | 127° |
| 2026-05-07 23:23 | 33.36599 | -117.74551 | 10951 ft | 370 kts | 128° |
| 2026-05-07 23:23 | 33.34933 | -117.72192 | 10976 ft | 369 kts | 127° |
| 2026-05-07 23:23 | 33.33286 | -117.69862 | 10937 ft | 369 kts | 128° |
| 2026-05-07 23:24 | 33.31622 | -117.67509 | 10983 ft | 369 kts | 127° |
| 2026-05-07 23:24 | 33.29955 | -117.65153 | 10960 ft | 370 kts | 127° |
| 2026-05-07 23:24 | 33.28305 | -117.62824 | 10967 ft | 370 kts | 127° |
| 2026-05-07 23:24 | 33.26640 | -117.60474 | 10993 ft | 373 kts | 128° |
| 2026-05-07 23:25 | 33.24954 | -117.58096 | 10982 ft | 376 kts | 128° |
| 2026-05-07 23:25 | 33.23271 | -117.55725 | 10983 ft | 378 kts | 128° |
| 2026-05-07 23:25 | 33.21569 | -117.53326 | 10985 ft | 380 kts | 128° |
| 2026-05-07 23:25 | 33.19855 | -117.50915 | 10983 ft | 381 kts | 127° |
| 2026-05-07 23:26 | 33.18138 | -117.48500 | 10983 ft | 383 kts | 128° |
| 2026-05-07 23:26 | 33.16409 | -117.46069 | 10985 ft | 384 kts | 127° |
| 2026-05-07 23:26 | 33.14675 | -117.43638 | 10984 ft | 378 kts | 129° |
| 2026-05-07 23:26 | 33.12689 | -117.41721 | 10920 ft | 369 kts | 147° |
| 2026-05-07 23:27 | 33.08103 | -117.39106 | 9953 ft | 356 kts | 153° |
| 2026-05-07 23:27 | 33.05902 | -117.37882 | 9782 ft | 335 kts | 153° |
| 2026-05-07 23:27 | 33.03859 | -117.36746 | 9729 ft | 314 kts | 153° |
| 2026-05-07 23:28 | 33.01940 | -117.35680 | 9684 ft | 296 kts | 153° |
| 2026-05-07 23:28 | 33.00129 | -117.34675 | 9639 ft | 280 kts | 153° |
| 2026-05-07 23:28 | 32.98389 | -117.33709 | 9442 ft | 273 kts | 153° |
| 2026-05-07 23:28 | 32.96674 | -117.32757 | 9025 ft | 266 kts | 153° |
| 2026-05-07 23:29 | 32.95035 | -117.31848 | 8657 ft | 256 kts | 153° |
| 2026-05-07 23:29 | 32.93430 | -117.30959 | 8162 ft | 252 kts | 154° |
| 2026-05-07 23:29 | 32.91865 | -117.30091 | 7675 ft | 249 kts | 154° |
| 2026-05-07 23:29 | 32.90305 | -117.29227 | 7182 ft | 247 kts | 154° |
| 2026-05-07 23:30 | 32.88776 | -117.28381 | 7011 ft | 232 kts | 155° |
| 2026-05-07 23:30 | 32.87309 | -117.27568 | 6994 ft | 236 kts | 155° |
| 2026-05-07 23:30 | 32.85805 | -117.26736 | 6992 ft | 242 kts | 155° |
| 2026-05-07 23:30 | 32.84316 | -117.25797 | 6992 ft | 246 kts | 139° |
| 2026-05-07 23:31 | 32.83323 | -117.24174 | 7012 ft | 245 kts | 110° |
| 2026-05-07 23:31 | 32.82768 | -117.22235 | 6998 ft | 249 kts | 106° |
| 2026-05-07 23:31 | 32.82226 | -117.20247 | 6989 ft | 252 kts | 106° |
| 2026-05-07 23:31 | 32.81693 | -117.18277 | 6992 ft | 255 kts | 106° |
| 2026-05-07 23:32 | 32.81141 | -117.16250 | 6990 ft | 258 kts | 106° |
| 2026-05-07 23:32 | 32.80578 | -117.14204 | 6994 ft | 259 kts | 106° |
| 2026-05-07 23:32 | 32.80014 | -117.12168 | 6994 ft | 260 kts | 106° |
| 2026-05-07 23:32 | 32.79454 | -117.10147 | 6990 ft | 259 kts | 105° |
| 2026-05-07 23:33 | 32.78887 | -117.08111 | 6990 ft | 257 kts | 106° |
| 2026-05-07 23:33 | 32.78329 | -117.06111 | 6991 ft | 256 kts | 105° |
| 2026-05-07 23:33 | 32.77764 | -117.04094 | 6995 ft | 255 kts | 105° |
| 2026-05-07 23:33 | 32.77210 | -117.02116 | 6992 ft | 254 kts | 106° |
| 2026-05-07 23:34 | 32.76648 | -117.00089 | 6582 ft | 263 kts | 106° |
| 2026-05-07 23:34 | 32.76075 | -116.98055 | 5952 ft | 262 kts | 112° |
| 2026-05-07 23:34 | 32.74979 | -116.96368 | 5368 ft | 260 kts | 145° |
| 2026-05-07 23:34 | 32.73305 | -116.95623 | 4792 ft | 255 kts | 179° |
| 2026-05-07 23:35 | 32.71634 | -116.96034 | 4229 ft | 248 kts | 212° |
| 2026-05-07 23:35 | 32.70445 | -116.97434 | 3656 ft | 240 kts | 246° |
| 2026-05-07 23:35 | 32.70008 | -116.99287 | 3076 ft | 236 kts | 266° |
| 2026-05-07 23:35 | 32.69897 | -117.01203 | 2557 ft | 231 kts | 268° |
| 2026-05-07 23:36 | 32.69875 | -117.03029 | 2518 ft | 208 kts | 278° |
| 2026-05-07 23:36 | 32.70095 | -117.04604 | 2555 ft | 181 kts | 281° |
| 2026-05-07 23:36 | 32.70287 | -117.05976 | 2460 ft | 154 kts | 281° |
| 2026-05-07 23:36 | 32.70465 | -117.07117 | 2302 ft | 141 kts | 283° |
| 2026-05-07 23:37 | 32.70699 | -117.08288 | 2211 ft | 147 kts | 286° |
| 2026-05-07 23:37 | 32.70973 | -117.09473 | 2098 ft | 149 kts | 287° |
| 2026-05-07 23:37 | 32.71283 | -117.10658 | 1848 ft | 148 kts | 289° |
| 2026-05-07 23:37 | 32.71575 | -117.11774 | 1560 ft | 140 kts | 286° |
| 2026-05-07 23:38 | 32.71855 | -117.12872 | 1260 ft | 142 kts | 287° |
| 2026-05-07 23:38 | 32.72143 | -117.13980 | 986 ft | 137 kts | 287° |
| 2026-05-07 23:38 | 32.72418 | -117.15088 | 692 ft | 145 kts | 285° |
| 2026-05-07 23:38 | 32.72682 | -117.16183 | 434 ft | 133 kts | 285° |
| 2026-05-07 23:39 | 32.72937 | -117.17252 | 222 ft | 136 kts | 285° |
| 2026-05-07 23:39 | 32.73196 | -117.18309 | 35 ft | 127 kts | 285° |
| 2026-05-07 23:39 | 32.73414 | -117.19208 | 23 ft | 95 kts | 287° |
| 2026-05-07 23:39 | 32.73533 | -117.19697 | 19 ft | 22 kts | 284° |
| 2026-05-07 23:40 | 32.73514 | -117.19827 | 19 ft | 8 kts | 248° |